createdAt,value
2024-01-30T00:02:20.325Z,83.89
2024-01-30T00:04:48.026Z,83.89
2024-01-30T00:07:15.790Z,83.43
2024-01-30T00:09:43.650Z,83.49
2024-01-30T00:12:12.789Z,83.40
2024-01-30T00:14:40.538Z,83.36
2024-01-30T00:17:08.191Z,82.90
2024-01-30T00:19:36.093Z,83.09
2024-01-30T00:22:03.955Z,83.85
2024-01-30T00:24:31.652Z,83.25
2024-01-30T00:26:59.340Z,83.35
2024-01-30T00:29:31.490Z,82.85
2024-01-30T00:31:59.253Z,83.23
2024-01-30T00:34:26.993Z,83.41
2024-01-30T00:36:55.017Z,83.41
2024-01-30T00:39:22.903Z,83.42
2024-01-30T00:41:50.636Z,83.87
2024-01-30T00:44:18.353Z,83.97
2024-01-30T00:46:47.768Z,83.38
2024-01-30T00:49:15.493Z,83.38
2024-01-30T00:51:43.339Z,83.08
2024-01-30T00:54:11.185Z,83.21
2024-01-30T00:56:38.834Z,83.16
2024-01-30T00:59:06.483Z,83.49
2024-01-30T01:01:34.352Z,83.66
2024-01-30T01:04:03.632Z,83.70
2024-01-30T01:06:31.432Z,82.96
2024-01-30T01:09:00.464Z,83.08
2024-01-30T01:11:29.233Z,83.46
2024-01-30T01:13:56.953Z,83.23
2024-01-30T01:16:24.600Z,83.53
2024-01-30T01:18:52.443Z,83.06
2024-01-30T01:21:21.565Z,83.29
2024-01-30T01:23:49.217Z,83.26
2024-01-30T01:26:16.917Z,83.04
2024-01-30T01:28:44.561Z,82.83
2024-01-30T01:31:12.247Z,82.73
2024-01-30T01:33:40.431Z,82.92
2024-01-30T01:36:08.662Z,83.12
2024-01-30T01:38:37.724Z,83.10
2024-01-30T01:41:05.709Z,83.13
2024-01-30T01:43:33.417Z,83.27
2024-01-30T01:46:02.569Z,83.30
2024-01-30T01:48:30.961Z,82.82
2024-01-30T01:50:59.226Z,83.12
2024-01-30T01:53:28.981Z,82.92
2024-01-30T01:55:59.058Z,82.90
2024-01-30T01:58:31.076Z,83.12
2024-01-30T02:01:00.200Z,82.87
2024-01-30T02:03:28.112Z,82.91
2024-01-30T02:05:57.199Z,82.82
2024-01-30T02:08:25.532Z,83.02
2024-01-30T02:10:53.297Z,82.90
2024-01-30T02:13:23.529Z,82.48
2024-01-30T02:15:52.467Z,82.79
2024-01-30T02:18:22.282Z,82.94
2024-01-30T02:20:49.973Z,82.58
2024-01-30T02:23:19.012Z,83.02
2024-01-30T02:25:46.658Z,82.69
2024-01-30T02:28:14.618Z,82.83
2024-01-30T02:30:42.765Z,83.10
2024-01-30T02:33:10.524Z,83.16
2024-01-30T02:35:38.290Z,82.97
2024-01-30T02:38:06.548Z,83.40
2024-01-30T02:40:35.559Z,83.44
2024-01-30T02:43:04.315Z,83.24
2024-01-30T02:45:32.071Z,83.30
2024-01-30T02:47:59.776Z,83.32
2024-01-30T02:50:27.530Z,83.63
2024-01-30T02:52:55.290Z,83.04
2024-01-30T02:55:23.078Z,83.41
2024-01-30T02:57:52.303Z,82.86
2024-01-30T03:00:21.793Z,83.02
2024-01-30T03:02:49.475Z,83.12
2024-01-30T03:05:17.151Z,83.07
2024-01-30T03:07:44.964Z,83.31
2024-01-30T03:10:12.682Z,82.93
2024-01-30T03:12:40.378Z,83.15
2024-01-30T03:15:11.942Z,83.29
2024-01-30T03:17:39.824Z,83.34
2024-01-30T03:20:08.626Z,83.38
2024-01-30T03:22:36.743Z,83.35
2024-01-30T03:25:04.950Z,83.00
2024-01-30T03:27:32.626Z,83.39
2024-01-30T03:30:00.433Z,83.31
2024-01-30T03:32:29.552Z,82.94
2024-01-30T03:34:57.392Z,82.89
2024-01-30T03:37:25.293Z,83.34
2024-01-30T03:39:53.068Z,82.84
2024-01-30T03:42:20.974Z,83.31
2024-01-30T03:44:48.680Z,82.97
2024-01-30T03:47:16.426Z,83.49
2024-01-30T03:49:45.545Z,83.59
2024-01-30T03:52:13.315Z,83.64
2024-01-30T03:54:41.170Z,83.60
2024-01-30T03:57:08.914Z,83.39
2024-01-30T03:59:36.619Z,82.91
2024-01-30T04:02:05.556Z,83.04
2024-01-30T04:04:33.607Z,83.05
2024-01-30T04:07:02.706Z,83.78
2024-01-30T04:09:30.368Z,83.46
2024-01-30T04:11:58.134Z,83.29
2024-01-30T04:14:25.761Z,83.17
2024-01-30T04:16:53.503Z,83.89
2024-01-30T04:19:21.299Z,83.63
2024-01-30T04:21:49.116Z,83.92
2024-01-30T04:24:19.714Z,83.68
2024-01-30T04:26:46.448Z,83.70
2024-01-30T04:29:14.201Z,83.93
2024-01-30T04:31:42.081Z,84.42
2024-01-30T04:34:09.800Z,83.87
2024-01-30T04:36:37.688Z,84.05
2024-01-30T04:39:05.452Z,84.10
2024-01-30T04:41:34.984Z,84.91
2024-01-30T04:44:02.850Z,84.15
2024-01-30T04:46:30.519Z,84.38
2024-01-30T04:48:58.484Z,84.41
2024-01-30T04:51:26.222Z,84.37
2024-01-30T04:53:53.890Z,84.54
2024-01-30T04:56:21.627Z,84.62
2024-01-30T04:58:50.698Z,84.39
2024-01-30T05:01:18.753Z,84.72
2024-01-30T05:03:46.834Z,84.58
2024-01-30T05:06:14.643Z,84.63
2024-01-30T05:08:42.397Z,84.50
2024-01-30T05:11:10.603Z,84.70
2024-01-30T05:13:38.323Z,84.72
2024-01-30T05:16:07.812Z,84.03
2024-01-30T05:18:35.700Z,84.05
2024-01-30T05:21:04.669Z,83.96
2024-01-30T05:23:32.513Z,84.60
2024-01-30T05:26:01.975Z,84.72
2024-01-30T05:28:29.893Z,84.76
2024-01-30T05:30:57.941Z,84.70
2024-01-30T05:33:27.287Z,84.58
2024-01-30T05:35:55.491Z,84.69
2024-01-30T05:38:23.213Z,84.53
2024-01-30T05:40:50.942Z,84.38
2024-01-30T05:43:18.629Z,84.91
2024-01-30T05:45:46.405Z,85.07
2024-01-30T05:48:14.072Z,84.94
2024-01-30T05:50:43.319Z,85.05
2024-01-30T05:53:11.027Z,84.57
2024-01-30T05:55:38.855Z,85.42
2024-01-30T05:58:06.573Z,85.46
2024-01-30T06:00:34.325Z,85.78
2024-01-30T06:03:02.034Z,85.62
2024-01-30T06:05:29.829Z,85.68
2024-01-30T06:07:59.000Z,85.86
2024-01-30T06:10:26.869Z,85.20
2024-01-30T06:12:54.650Z,85.98
2024-01-30T06:15:22.313Z,85.54
2024-01-30T06:17:50.031Z,86.09
2024-01-30T06:20:18.239Z,86.22
2024-01-30T06:22:45.931Z,86.32
2024-01-30T06:25:15.194Z,86.49
2024-01-30T06:27:42.941Z,85.95
2024-01-30T06:30:11.702Z,86.20
2024-01-30T06:32:39.689Z,86.80
2024-01-30T06:35:08.228Z,86.19
2024-01-30T06:37:35.975Z,85.99
2024-01-30T06:40:03.784Z,86.09
2024-01-30T06:42:32.929Z,86.10
2024-01-30T06:45:00.621Z,86.78
2024-01-30T06:47:29.749Z,86.96
2024-01-30T06:49:57.636Z,86.32
2024-01-30T06:52:25.465Z,87.01
2024-01-30T06:54:53.241Z,87.40
2024-01-30T06:57:21.107Z,87.24
2024-01-30T06:59:50.161Z,86.61
2024-01-30T07:02:18.369Z,86.91
2024-01-30T07:04:47.533Z,87.26
2024-01-30T07:07:16.132Z,86.85
2024-01-30T07:09:44.097Z,87.11
2024-01-30T07:12:11.809Z,87.54
2024-01-30T07:14:39.489Z,87.44
2024-01-30T07:17:09.734Z,87.40
2024-01-30T07:19:37.575Z,87.62
2024-01-30T07:22:05.642Z,86.72
2024-01-30T07:24:33.317Z,86.97
2024-01-30T07:27:01.012Z,87.29
2024-01-30T07:29:28.742Z,86.80
2024-01-30T07:31:56.489Z,86.70
2024-01-30T07:34:25.627Z,86.56
2024-01-30T07:36:56.356Z,86.42
2024-01-30T07:39:24.199Z,86.04
2024-01-30T07:41:51.909Z,86.61
2024-01-30T07:44:19.709Z,87.00
2024-01-30T07:46:47.377Z,87.07
2024-01-30T07:49:15.503Z,87.03
2024-01-30T07:51:46.170Z,86.98
2024-01-30T07:54:14.166Z,86.60
2024-01-30T07:56:42.811Z,86.62
2024-01-30T07:59:11.912Z,86.61
2024-01-30T08:01:39.734Z,86.46
2024-01-30T08:04:07.529Z,86.18
2024-01-30T08:06:35.500Z,86.25
2024-01-30T08:09:05.903Z,86.37
2024-01-30T08:11:33.617Z,86.21
2024-01-30T08:14:01.274Z,86.14
2024-01-30T08:16:29.068Z,86.39
2024-01-30T08:18:58.965Z,86.66
2024-01-30T08:21:26.794Z,86.50
2024-01-30T08:23:54.812Z,86.23
2024-01-30T08:26:23.858Z,86.41
2024-01-30T08:28:52.923Z,86.47
2024-01-30T08:31:20.726Z,86.15
2024-01-30T08:33:50.312Z,86.35
2024-01-30T08:36:19.285Z,86.42
2024-01-30T08:38:46.949Z,86.22
2024-01-30T08:41:14.699Z,86.56
2024-01-30T08:43:45.743Z,86.31
2024-01-30T08:46:14.151Z,86.39
2024-01-30T08:48:41.943Z,86.60
2024-01-30T08:51:10.160Z,86.85
2024-01-30T08:53:37.897Z,86.63
2024-01-30T08:56:06.164Z,86.50
2024-01-30T08:58:34.009Z,85.88
2024-01-30T09:01:05.069Z,85.48
2024-01-30T09:03:32.924Z,85.21
2024-01-30T09:06:00.597Z,84.79
2024-01-30T09:08:28.492Z,84.06
2024-01-30T09:10:56.406Z,83.35
2024-01-30T09:13:24.194Z,82.71
2024-01-30T09:15:51.957Z,81.99
2024-01-30T09:18:21.163Z,82.10
2024-01-30T09:20:48.894Z,81.47
2024-01-30T09:23:16.831Z,79.92
2024-01-30T09:25:44.550Z,79.07
2024-01-30T09:28:12.278Z,79.52
2024-01-30T09:30:40.037Z,78.90
2024-01-30T09:33:08.854Z,78.99
2024-01-30T09:35:38.290Z,79.51
2024-01-30T09:38:06.212Z,79.25
2024-01-30T09:40:34.199Z,79.29
2024-01-30T09:43:02.191Z,78.74
2024-01-30T09:45:29.934Z,78.33
2024-01-30T09:47:58.134Z,78.36
2024-01-30T09:50:25.876Z,78.41
2024-01-30T09:52:57.353Z,77.56
2024-01-30T09:55:25.978Z,77.35
2024-01-30T09:57:53.707Z,77.16
2024-01-30T10:00:23.902Z,76.81
2024-01-30T10:02:51.861Z,76.15
2024-01-30T10:05:21.590Z,76.27
2024-01-30T10:07:57.146Z,76.28
2024-01-30T10:10:25.685Z,75.81
2024-01-30T10:12:53.691Z,75.48
2024-01-30T10:15:21.651Z,75.19
2024-01-30T10:17:49.448Z,74.77
2024-01-30T10:20:18.665Z,73.61
2024-01-30T10:22:47.252Z,73.44
2024-01-30T10:25:17.540Z,72.86
2024-01-30T10:27:45.297Z,72.75
2024-01-30T10:30:13.309Z,73.08
2024-01-30T10:32:41.024Z,73.10
2024-01-30T10:35:10.013Z,72.54
2024-01-30T10:37:37.932Z,71.81
2024-01-30T10:40:07.327Z,72.24
2024-01-30T10:42:39.005Z,71.85
2024-01-30T10:45:09.402Z,72.04
2024-01-30T10:47:38.946Z,72.12
2024-01-30T10:50:08.873Z,70.83
2024-01-30T10:52:36.889Z,71.45
2024-01-30T10:55:08.446Z,70.69
2024-01-30T10:57:38.007Z,70.31
2024-01-30T11:00:11.469Z,70.08
2024-01-30T11:02:42.123Z,69.91
2024-01-30T11:05:10.717Z,70.53
2024-01-30T11:07:40.792Z,70.73
2024-01-30T11:10:10.561Z,70.57
2024-01-30T11:12:44.483Z,70.84
2024-01-30T11:15:16.664Z,70.15
2024-01-30T11:17:46.213Z,70.76
2024-01-30T11:20:16.748Z,70.98
2024-01-30T11:22:46.927Z,71.18
2024-01-30T11:25:15.876Z,70.59
2024-01-30T11:27:45.555Z,71.29
2024-01-30T11:30:13.747Z,70.88
2024-01-30T11:32:41.479Z,71.01
2024-01-30T11:35:13.275Z,71.52
2024-01-30T11:37:41.759Z,71.93
2024-01-30T11:40:11.760Z,71.80
2024-01-30T11:42:40.722Z,72.01
2024-01-30T11:45:10.250Z,72.48
2024-01-30T11:47:42.282Z,72.20
2024-01-30T11:50:12.326Z,72.08
2024-01-30T11:52:40.392Z,72.60
2024-01-30T11:55:09.314Z,72.72
2024-01-30T11:57:38.107Z,72.78
2024-01-30T12:00:11.021Z,72.43
2024-01-30T12:02:40.264Z,72.81
2024-01-30T12:05:08.678Z,73.16
2024-01-30T12:07:36.483Z,73.27
2024-01-30T12:10:06.665Z,73.26
2024-01-30T12:12:34.626Z,73.30
2024-01-30T12:15:02.463Z,73.76
2024-01-30T12:17:31.750Z,73.58
2024-01-30T12:20:08.124Z,73.55
2024-01-30T12:22:39.297Z,73.97
2024-01-30T12:25:07.683Z,74.24
2024-01-30T12:27:35.521Z,74.42
2024-01-30T12:30:03.450Z,74.64
2024-01-30T12:32:31.219Z,74.42
2024-01-30T12:35:01.940Z,74.99
2024-01-30T12:37:32.400Z,74.57
2024-01-30T12:40:00.301Z,75.01
2024-01-30T12:42:29.157Z,74.44
2024-01-30T12:44:59.075Z,74.91
2024-01-30T12:47:27.194Z,74.95
2024-01-30T12:49:58.155Z,74.99
2024-01-30T12:52:26.317Z,74.88
2024-01-30T12:54:55.486Z,74.82
2024-01-30T12:57:23.429Z,75.49
2024-01-30T12:59:51.150Z,75.42
2024-01-30T13:02:19.048Z,75.64
2024-01-30T13:04:48.939Z,75.86
2024-01-30T13:07:18.175Z,75.57
2024-01-30T13:09:45.891Z,76.05
2024-01-30T13:12:15.117Z,76.21
2024-01-30T13:14:42.772Z,76.63
2024-01-30T13:17:10.722Z,76.64
2024-01-30T13:19:38.531Z,76.37
2024-01-30T13:22:06.704Z,76.33
2024-01-30T13:24:34.394Z,76.45
2024-01-30T13:27:02.094Z,76.77
2024-01-30T13:29:31.209Z,76.94
2024-01-30T13:31:58.925Z,76.92
2024-01-30T13:34:27.484Z,76.92
2024-01-30T13:36:55.333Z,76.94
2024-01-30T13:39:23.850Z,77.30
2024-01-30T13:41:53.310Z,77.52
2024-01-30T13:44:21.999Z,77.57
2024-01-30T13:46:51.425Z,77.62
2024-01-30T13:49:19.157Z,77.83
2024-01-30T13:51:47.014Z,78.07
2024-01-30T13:54:17.059Z,78.19
2024-01-30T13:56:45.342Z,78.09
2024-01-30T13:59:13.151Z,78.26
2024-01-30T14:01:40.945Z,78.53
2024-01-30T14:04:12.071Z,78.36
2024-01-30T14:06:49.956Z,78.42
2024-01-30T14:09:22.286Z,78.69
2024-01-30T14:11:50.040Z,78.82
2024-01-30T14:14:17.677Z,78.89
2024-01-30T14:16:45.546Z,78.90
2024-01-30T14:19:14.649Z,78.83
2024-01-30T14:21:43.217Z,78.69
2024-01-30T14:24:12.289Z,78.99
2024-01-30T14:26:40.063Z,78.92
2024-01-30T14:29:08.233Z,78.86
2024-01-30T14:31:36.000Z,79.06
2024-01-30T14:34:03.992Z,78.62
2024-01-30T14:36:33.291Z,79.08
2024-01-30T14:39:01.034Z,78.63
2024-01-30T14:41:29.575Z,78.55
2024-01-30T14:43:57.270Z,78.42
2024-01-30T14:46:25.144Z,78.74
2024-01-30T14:48:53.092Z,78.56
2024-01-30T14:51:21.197Z,79.12
2024-01-30T14:53:50.215Z,78.86
2024-01-30T14:56:18.800Z,78.67
2024-01-30T14:58:46.561Z,78.60
2024-01-30T15:01:14.899Z,78.98
2024-01-30T15:03:44.445Z,79.20
2024-01-30T15:06:12.142Z,78.96
2024-01-30T15:08:40.142Z,78.25
2024-01-30T15:11:09.210Z,78.85
2024-01-30T15:13:36.908Z,79.04
2024-01-30T15:16:06.865Z,78.79
2024-01-30T15:18:34.709Z,79.01
2024-01-30T15:21:03.304Z,78.79
2024-01-30T15:23:31.083Z,78.33
2024-01-30T15:25:58.973Z,78.16
2024-01-30T15:28:38.870Z,77.95
2024-01-30T15:31:08.076Z,77.63
2024-01-30T15:33:36.062Z,77.64
2024-01-30T15:36:04.843Z,77.25
2024-01-30T15:38:32.616Z,76.26
2024-01-30T15:41:01.887Z,75.09
2024-01-30T15:43:29.818Z,74.60
2024-01-30T15:45:59.196Z,74.97
2024-01-30T15:48:27.084Z,74.32
2024-01-30T15:50:55.142Z,74.57
2024-01-30T15:53:23.247Z,74.64
2024-01-30T15:55:50.974Z,73.99
2024-01-30T15:58:18.666Z,73.99
2024-01-30T16:00:46.540Z,73.42
2024-01-30T16:03:15.756Z,73.50
2024-01-30T16:05:43.791Z,73.11
2024-01-30T16:08:11.516Z,70.58
2024-01-30T16:10:39.380Z,69.89
2024-01-30T16:13:07.118Z,70.08
2024-01-30T16:15:34.897Z,70.07
2024-01-30T16:18:03.285Z,70.22
2024-01-30T16:20:32.400Z,68.92
2024-01-30T16:23:00.071Z,68.16
2024-01-30T16:25:27.852Z,69.66
2024-01-30T16:27:55.649Z,68.87
2024-01-30T16:30:23.329Z,68.64
2024-01-30T16:32:52.316Z,68.46
2024-01-30T16:35:20.142Z,68.50
2024-01-30T16:37:49.170Z,69.25
2024-01-30T16:40:17.243Z,68.56
2024-01-30T16:42:44.912Z,69.07
2024-01-30T16:45:12.585Z,68.79
2024-01-30T16:47:40.323Z,69.22
2024-01-30T16:50:08.534Z,69.00
2024-01-30T16:52:36.320Z,69.19
2024-01-30T16:55:06.210Z,68.94
2024-01-30T16:57:36.751Z,68.81
2024-01-30T17:00:06.925Z,68.50
2024-01-30T17:02:34.629Z,68.76
2024-01-30T17:05:11.363Z,69.45
2024-01-30T17:07:44.116Z,69.25
2024-01-30T17:10:14.420Z,69.43
2024-01-30T17:12:42.148Z,69.27
2024-01-30T17:15:10.731Z,70.01
2024-01-30T17:17:38.437Z,69.61
2024-01-30T17:20:08.056Z,69.74
2024-01-30T17:22:36.200Z,70.13
2024-01-30T17:25:04.540Z,69.25
2024-01-30T17:27:33.947Z,68.63
2024-01-30T17:30:01.854Z,68.97
2024-01-30T17:32:29.588Z,68.88
2024-01-30T17:34:57.384Z,69.60
2024-01-30T17:37:25.213Z,69.19
2024-01-30T17:39:53.097Z,69.57
2024-01-30T17:42:22.849Z,69.62
2024-01-30T17:44:52.283Z,69.44
2024-01-30T17:47:20.055Z,69.98
2024-01-30T17:49:47.762Z,70.20
2024-01-30T17:52:16.431Z,70.17
2024-01-30T17:54:44.109Z,70.90
2024-01-30T17:57:12.025Z,71.59
2024-01-30T17:59:40.100Z,72.95
2024-01-30T18:02:09.530Z,74.38
2024-01-30T18:04:40.508Z,75.06
2024-01-30T18:07:08.694Z,75.67
2024-01-30T18:09:36.630Z,75.43
2024-01-30T18:12:04.685Z,76.15
2024-01-30T18:14:32.400Z,75.93
2024-01-30T18:17:00.258Z,75.90
2024-01-30T18:19:29.519Z,75.43
2024-01-30T18:21:57.294Z,75.55
2024-01-30T18:26:53.839Z,74.93
2024-01-30T18:29:21.487Z,75.08
2024-01-30T18:31:49.236Z,74.81
2024-01-30T18:34:17.112Z,74.60
2024-01-30T18:36:46.274Z,74.59
2024-01-30T18:39:14.612Z,74.15
2024-01-30T18:41:42.356Z,74.17
2024-01-30T18:44:10.012Z,74.28
2024-01-30T18:46:38.160Z,74.18
2024-01-30T18:49:06.071Z,73.91
2024-01-30T18:51:34.001Z,74.23
2024-01-30T18:54:03.036Z,74.40
2024-01-30T18:56:30.714Z,73.76
2024-01-30T18:58:58.487Z,73.79
2024-01-30T19:01:26.274Z,74.00
2024-01-30T19:03:54.791Z,74.20
2024-01-30T19:06:22.627Z,73.36
2024-01-30T19:08:50.359Z,73.28
2024-01-30T19:11:22.567Z,73.33
2024-01-30T19:13:50.535Z,73.44
2024-01-30T19:16:18.247Z,73.70
2024-01-30T19:18:46.603Z,73.45
2024-01-30T19:21:14.498Z,73.63
2024-01-30T19:23:42.193Z,73.94
2024-01-30T19:26:10.058Z,73.61
2024-01-30T19:28:39.565Z,73.62
2024-01-30T19:31:07.513Z,74.00
2024-01-30T19:33:35.395Z,73.85
2024-01-30T19:36:03.396Z,73.78
2024-01-30T19:38:31.073Z,73.78
2024-01-30T19:40:59.031Z,74.10
2024-01-30T19:43:27.390Z,74.68
2024-01-30T19:45:56.582Z,74.72
2024-01-30T19:48:24.271Z,74.86
2024-01-30T19:50:51.964Z,74.69
2024-01-30T19:53:21.920Z,75.20
2024-01-30T19:55:49.654Z,75.55
2024-01-30T19:58:17.426Z,76.18
2024-01-30T20:00:45.504Z,76.22
2024-01-30T20:03:14.607Z,76.29
2024-01-30T20:05:42.398Z,76.93
2024-01-30T20:08:10.128Z,77.10
2024-01-30T20:10:37.845Z,77.09
2024-01-30T20:13:05.907Z,77.15
2024-01-30T20:15:33.652Z,77.08
2024-01-30T20:18:01.429Z,77.21
2024-01-30T20:20:30.908Z,77.20
2024-01-30T20:22:58.623Z,77.51
2024-01-30T20:25:26.370Z,77.98
2024-01-30T20:27:54.884Z,78.62
2024-01-30T20:30:23.610Z,78.69
2024-01-30T20:32:52.566Z,79.28
2024-01-30T20:35:21.095Z,79.17
2024-01-30T20:37:51.042Z,79.49
2024-01-30T20:40:19.089Z,79.54
2024-01-30T20:42:48.369Z,79.63
2024-01-30T20:45:16.515Z,79.54
2024-01-30T20:47:44.563Z,79.88
2024-01-30T20:50:12.445Z,80.45
2024-01-30T20:52:40.312Z,80.55
2024-01-30T20:55:09.991Z,80.32
2024-01-30T20:57:37.770Z,80.28
2024-01-30T21:00:08.561Z,80.76
2024-01-30T21:02:38.358Z,80.46
2024-01-30T21:05:07.059Z,80.28
2024-01-30T21:07:34.944Z,80.49
2024-01-30T21:10:02.769Z,80.83
2024-01-30T21:12:31.846Z,81.23
2024-01-30T21:14:59.525Z,81.15
2024-01-30T21:17:27.885Z,81.14
2024-01-30T21:19:55.789Z,81.45
2024-01-30T21:22:23.582Z,81.72
2024-01-30T21:24:51.507Z,81.51
2024-01-30T21:27:19.233Z,81.62
2024-01-30T21:29:48.288Z,82.07
2024-01-30T21:32:16.467Z,81.57
2024-01-30T21:34:44.289Z,81.83
2024-01-30T21:37:11.985Z,82.05
2024-01-30T21:39:41.036Z,82.21
2024-01-30T21:42:08.776Z,82.27
2024-01-30T21:44:36.553Z,82.37
2024-01-30T21:47:06.077Z,82.63
2024-01-30T21:49:34.580Z,82.40
2024-01-30T21:52:06.117Z,82.46
2024-01-30T21:54:34.120Z,82.95
2024-01-30T21:57:01.879Z,83.32
2024-01-30T21:59:29.684Z,83.35
2024-01-30T22:01:57.377Z,83.33
2024-01-30T22:04:26.620Z,83.55
2024-01-30T22:06:54.447Z,83.19
2024-01-30T22:09:23.213Z,83.14
2024-01-30T22:11:50.994Z,83.56
2024-01-30T22:14:18.822Z,84.35
2024-01-30T22:16:46.497Z,84.31
2024-01-30T22:19:14.854Z,84.33
2024-01-30T22:21:43.885Z,84.52
2024-01-30T22:24:11.546Z,84.80
2024-01-30T22:26:43.878Z,85.27
2024-01-30T22:29:11.862Z,84.69
2024-01-30T22:31:40.741Z,84.94
2024-01-30T22:34:08.440Z,84.44
2024-01-30T22:36:36.247Z,84.66
2024-01-30T22:39:06.705Z,84.55
2024-01-30T22:41:34.695Z,84.29
2024-01-30T22:44:02.893Z,85.46
2024-01-30T22:46:30.810Z,85.22
2024-01-30T22:48:58.688Z,85.20
2024-01-30T22:51:26.989Z,85.31
2024-01-30T22:53:54.848Z,85.30
2024-01-30T22:56:23.878Z,85.48
2024-01-30T22:58:51.584Z,85.25
2024-01-30T23:01:19.306Z,85.01
2024-01-30T23:03:47.320Z,85.58
2024-01-30T23:06:15.021Z,85.75
2024-01-30T23:08:42.697Z,86.20
2024-01-30T23:11:12.765Z,87.73
2024-01-30T23:13:42.615Z,88.63
2024-01-30T23:16:10.523Z,89.39
2024-01-30T23:18:38.262Z,89.52
2024-01-30T23:21:06.231Z,89.82
2024-01-30T23:23:34.247Z,89.39
2024-01-30T23:26:01.929Z,88.64
2024-01-30T23:28:29.626Z,89.06
2024-01-30T23:30:58.979Z,90.31
2024-01-30T23:33:26.813Z,89.62
2024-01-30T23:35:54.536Z,89.95
2024-01-30T23:38:22.233Z,89.29
2024-01-30T23:40:50.523Z,89.22
2024-01-30T23:43:19.215Z,89.90
2024-01-30T23:45:46.921Z,88.79
2024-01-30T23:48:16.677Z,89.25
2024-01-30T23:50:44.441Z,88.60
2024-01-30T23:53:12.166Z,89.13
2024-01-30T23:55:39.996Z,88.97
2024-01-30T23:58:08.354Z,89.56
